Asherville, Indiana
Current Conditions -  °F | °C
As of 4:53 PM on Saturday 25 Oct 2014 (Local Time) from KHUF Reporting Station
Clear Clear  
Wind Chill: 78°   Ceiling: Unl
Heat Index: 78°   Visibility: 9mi
Dew Point: 44°   Wind: 8mph
Humidity: 30%   Direction: 300°WNW
Pressure: 29.96"   Gusts: NA
Location:  39.5158°N, 87.1262°W
Report Text: KHUF 252053Z 30007KT 9SM CLR 26/07 A2996 RMK AO2 SLP142 T02560067 56006
Loading
Personal Weather Stations






























Interactive Weather Map New forecast layout! Learn more

10-Day Weather Forecast

Advertisements
Track Severe Weather on mobile